Time;durP1;ratioP1;P1;durP2;ratioP2;P2;SDS_P1;SDS_P2;PMS_P1;PMS_P2;Temp;Humidity;BMP_temperature;BMP_pressure;BME280_temperature;BME280_humidity;BME280_pressure;Samples;Min_cycle;Max_cycle;Signal;HPM_P1;HPM_P2
2022/08/19 00:01:08;;;;;;;14.70;5.20;;;19.70;73.60;;;;;;4062166;29;20107;-85
2022/08/19 00:03:09;;;;;;;12.23;4.82;;;19.70;73.60;;;;;;4073129;29;20023;-85
2022/08/19 00:05:11;;;;;;;17.73;5.03;;;19.70;73.70;;;;;;4078303;29;20028;-86
2022/08/19 00:07:12;;;;;;;25.17;5.90;;;19.70;73.70;;;;;;4058844;29;20040;-85
2022/08/19 00:09:16;;;;;;;21.95;6.32;;;19.70;73.80;;;;;;4078343;28;20114;-85
2022/08/19 00:11:18;;;;;;;17.85;6.07;;;19.70;73.80;;;;;;4075402;29;20067;-85
2022/08/19 00:13:19;;;;;;;21.00;5.22;;;19.70;73.90;;;;;;4060891;29;20024;-85
2022/08/19 00:15:21;;;;;;;16.63;5.55;;;19.70;73.90;;;;;;4075671;29;20028;-86
2022/08/19 00:17:22;;;;;;;17.45;5.32;;;19.70;74.10;;;;;;4061851;29;20032;-84
2022/08/19 00:19:23;;;;;;;19.65;5.85;;;19.60;74.10;;;;;;4078384;29;20028;-84
2022/08/19 00:21:26;;;;;;;16.73;5.88;;;19.60;74.20;;;;;;4072245;29;20079;-85
2022/08/19 00:23:27;;;;;;;18.65;5.47;;;19.60;74.40;;;;;;4073751;29;20024;-85
2022/08/19 00:25:28;;;;;;;18.90;5.53;;;19.60;74.40;;;;;;4076045;29;20103;-86
2022/08/19 00:27:29;;;;;;;19.00;5.90;;;19.60;74.40;;;;;;4061211;29;20050;-85
2022/08/19 00:29:30;;;;;;;27.77;6.60;;;19.60;74.50;;;;;;4069043;29;20163;-86
2022/08/19 00:31:31;;;;;;;12.55;5.05;;;19.60;74.60;;;;;;4054831;29;20024;-85
2022/08/19 00:33:33;;;;;;;19.83;5.60;;;19.60;74.60;;;;;;4053638;29;20028;-86
2022/08/19 00:35:34;;;;;;;17.08;6.05;;;19.60;74.60;;;;;;4054581;29;20020;-85
2022/08/19 00:37:35;;;;;;;23.33;7.05;;;19.60;74.70;;;;;;4077990;29;20047;-86
2022/08/19 00:39:36;;;;;;;16.70;6.10;;;19.60;74.80;;;;;;4071958;29;20039;-86
2022/08/19 00:41:36;;;;;;;23.73;6.20;;;19.60;74.90;;;;;;4075322;29;20039;-86
2022/08/19 00:43:38;;;;;;;18.67;6.05;;;19.60;75.00;;;;;;4073574;29;20048;-85
2022/08/19 00:45:41;;;;;;;19.77;5.75;;;19.50;75.00;;;;;;4079574;29;20031;-86
2022/08/19 00:47:43;;;;;;;15.20;5.85;;;19.50;75.10;;;;;;4077583;29;20087;-87
2022/08/19 00:49:52;;;;;;;19.33;5.95;;;19.50;75.20;;;;;;4048967;29;20032;-86
2022/08/19 00:52:00;;;;;;;25.02;6.72;;;19.50;75.40;;;;;;4054958;29;20036;-85
2022/08/19 00:54:02;;;;;;;17.75;6.38;;;19.50;75.50;;;;;;4072701;29;20039;-84
2022/08/19 00:56:05;;;;;;;22.98;6.30;;;19.50;75.60;;;;;;4068006;29;20027;-86
2022/08/19 00:58:08;;;;;;;;;;;19.50;75.70;;;;;;4063400;29;20055;-86
2022/08/19 01:00:13;;;;;;;24.35;6.85;;;19.50;75.80;;;;;;4045324;29;19959;-86
2022/08/19 01:02:16;;;;;;;16.52;5.88;;;19.60;75.60;;;;;;4079864;29;20059;-86
2022/08/19 01:04:16;;;;;;;19.00;6.95;;;19.50;75.70;;;;;;4078746;29;20036;-86
2022/08/19 01:06:17;;;;;;;25.35;6.57;;;19.50;75.90;;;;;;4079359;28;20039;-86
2022/08/19 01:08:19;;;;;;;20.63;7.28;;;19.50;75.90;;;;;;4080770;29;20035;-85
2022/08/19 01:10:27;;;;;;;24.35;7.57;;;19.50;76.20;;;;;;4076994;29;20032;-85
2022/08/19 01:12:27;;;;;;;17.40;7.07;;;19.50;76.30;;;;;;4081789;29;20012;-86
2022/08/19 01:14:29;;;;;;;20.50;7.28;;;19.50;76.30;;;;;;4056985;29;20168;-85
2022/08/19 01:16:32;;;;;;;19.08;7.30;;;19.50;76.30;;;;;;4078604;29;20035;-85
2022/08/19 01:18:37;;;;;;;20.13;6.43;;;19.50;76.30;;;;;;4043788;29;20053;-85
2022/08/19 01:20:41;;;;;;;16.45;6.22;;;19.60;76.40;;;;;;4079591;29;20067;-85
2022/08/19 01:22:55;;;;;;;;;;;19.60;76.30;;;;;;4081992;29;20044;-85
2022/08/19 01:24:57;;;;;;;18.48;6.90;;;19.60;76.50;;;;;;4073872;29;19918;-85
2022/08/19 01:26:57;;;;;;;14.35;6.50;;;19.60;75.80;;;;;;4076859;29;20052;-87
2022/08/19 01:29:00;;;;;;;21.40;6.55;;;19.60;75.80;;;;;;4067651;29;20032;-85
2022/08/19 01:31:01;;;;;;;19.35;6.15;;;19.60;75.80;;;;;;4062388;29;20136;-86
2022/08/19 01:33:05;;;;;;;23.67;6.30;;;19.60;75.70;;;;;;4081301;29;20020;-85
2022/08/19 01:35:06;;;;;;;16.23;6.10;;;19.50;75.70;;;;;;4078036;29;20028;-86
2022/08/19 01:37:11;;;;;;;22.80;6.70;;;19.60;75.70;;;;;;4065584;29;20024;-84
2022/08/19 01:39:16;;;;;;;17.58;6.55;;;19.50;75.60;;;;;;4062989;29;20035;-86
2022/08/19 01:41:18;;;;;;;17.58;6.22;;;19.50;75.50;;;;;;4078013;29;20103;-85
2022/08/19 01:43:18;;;;;;;20.88;6.38;;;19.50;75.40;;;;;;4063706;29;20048;-85
2022/08/19 01:45:21;;;;;;;15.63;6.13;;;19.50;75.50;;;;;;4061851;29;20036;-85
2022/08/19 01:47:22;;;;;;;18.83;6.13;;;19.50;75.50;;;;;;4048273;29;20036;-86
2022/08/19 01:49:26;;;;;;;16.63;5.90;;;19.50;75.50;;;;;;4047750;29;20266;-86
2022/08/19 01:51:27;;;;;;;19.55;6.60;;;19.40;75.40;;;;;;4063778;29;20042;-85
2022/08/19 01:53:28;;;;;;;18.85;6.80;;;19.40;75.60;;;;;;4061638;29;20040;-85
2022/08/19 01:55:29;;;;;;;18.98;6.38;;;19.40;75.60;;;;;;4077875;29;20028;-86
2022/08/19 01:57:30;;;;;;;16.10;6.43;;;19.40;75.70;;;;;;4080618;29;20756;-86
2022/08/19 01:59:32;;;;;;;18.02;6.93;;;19.50;75.70;;;;;;4076397;29;20027;-86
2022/08/19 02:01:34;;;;;;;18.23;6.83;;;19.40;75.70;;;;;;4077539;29;20024;-86
2022/08/19 02:03:35;;;;;;;16.90;6.03;;;19.40;75.70;;;;;;4079918;29;20024;-86
2022/08/19 02:05:36;;;;;;;20.40;6.50;;;19.40;75.70;;;;;;4060111;29;20039;-85
2022/08/19 02:07:38;;;;;;;16.95;6.32;;;19.40;75.70;;;;;;4076180;29;20051;-86
2022/08/19 02:09:39;;;;;;;25.08;6.70;;;19.40;75.50;;;;;;4063947;29;20032;-86
2022/08/19 02:11:41;;;;;;;18.00;7.13;;;19.40;75.50;;;;;;4060849;29;20028;-85
2022/08/19 02:13:42;;;;;;;23.50;7.55;;;19.40;75.40;;;;;;4060952;29;20048;-85
2022/08/19 02:15:43;;;;;;;17.95;5.75;;;19.40;75.40;;;;;;4078586;29;20090;-85
2022/08/19 02:17:44;;;;;;;20.92;7.28;;;19.40;75.50;;;;;;4077974;29;20031;-86
2022/08/19 02:19:44;;;;;;;18.63;7.30;;;19.40;75.60;;;;;;4064723;29;20074;-86
2022/08/19 02:21:45;;;;;;;22.00;7.65;;;19.40;75.60;;;;;;4078301;29;20671;-85
2022/08/19 02:23:47;;;;;;;15.95;6.90;;;19.40;75.70;;;;;;4087091;29;20087;-86
2022/08/19 02:25:48;;;;;;;17.05;7.25;;;19.40;75.70;;;;;;4064708;29;20510;-85
2022/08/19 02:27:49;;;;;;;21.08;6.72;;;19.40;75.70;;;;;;4081524;29;20031;-85
2022/08/19 02:29:50;;;;;;;19.88;6.82;;;19.40;75.70;;;;;;4078833;29;20035;-85
2022/08/19 02:31:51;;;;;;;24.55;6.85;;;19.30;75.40;;;;;;4061387;29;20036;-86
2022/08/19 02:33:55;;;;;;;19.05;7.13;;;19.40;75.40;;;;;;4078576;29;20086;-85
2022/08/19 02:35:56;;;;;;;22.23;6.88;;;19.40;75.30;;;;;;4047067;29;20056;-85
2022/08/19 02:40:17;;;;;;;19.48;7.20;;;19.30;75.00;;;;;;4079320;29;20051;-85
2022/08/19 02:42:18;;;;;;;20.67;7.18;;;19.30;74.80;;;;;;4079087;29;20047;-85
2022/08/19 02:44:19;;;;;;;19.65;7.55;;;19.30;74.80;;;;;;4062271;29;20040;-85
2022/08/19 02:46:23;;;;;;;19.52;7.18;;;19.20;74.80;;;;;;4045407;29;20464;-85
2022/08/19 02:48:25;;;;;;;25.05;6.60;;;19.20;74.80;;;;;;4074616;29;20405;-85
2022/08/19 02:50:26;;;;;;;25.10;7.63;;;19.20;74.80;;;;;;4064692;29;20032;-86
2022/08/19 02:52:27;;;;;;;21.58;6.70;;;19.20;74.80;;;;;;4080386;29;20035;-85
2022/08/19 02:54:28;;;;;;;18.08;7.32;;;19.10;74.70;;;;;;4079351;29;20186;-84
2022/08/19 02:56:30;;;;;;;20.00;7.47;;;19.10;74.70;;;;;;4065145;29;21736;-85
2022/08/19 02:58:31;;;;;;;26.33;8.48;;;19.10;74.80;;;;;;4078643;29;20024;-86
2022/08/19 03:00:32;;;;;;;21.77;6.90;;;19.00;74.70;;;;;;4077321;29;20564;-84
2022/08/19 03:02:32;;;;;;;18.65;6.82;;;19.00;74.70;;;;;;4077269;29;20103;-85
2022/08/19 03:04:33;;;;;;;19.40;7.47;;;19.00;74.80;;;;;;4062394;29;20028;-84
2022/08/19 03:06:37;;;;;;;17.60;7.50;;;18.90;74.80;;;;;;4077265;29;20411;-85
2022/08/19 03:08:38;;;;;;;21.42;8.10;;;18.90;75.00;;;;;;4077984;29;20442;-84
2022/08/19 03:10:46;;;;;;;20.73;7.63;;;18.90;75.10;;;;;;4076909;29;20026;-86
2022/08/19 03:12:47;;;;;;;21.77;7.32;;;18.90;75.10;;;;;;4061947;29;20024;-85
2022/08/19 03:14:48;;;;;;;18.20;7.22;;;18.90;75.20;;;;;;4072360;29;20482;-86
2022/08/19 03:16:51;;;;;;;23.58;8.52;;;18.80;75.20;;;;;;4076152;29;20031;-85
2022/08/19 03:18:52;;;;;;;16.15;7.30;;;18.80;75.30;;;;;;4078762;29;20039;-86
2022/08/19 03:20:54;;;;;;;15.73;7.20;;;18.80;75.20;;;;;;4063037;29;20099;-85
2022/08/19 03:22:54;;;;;;;18.73;7.50;;;18.80;75.30;;;;;;4075539;29;20059;-84
2022/08/19 03:24:56;;;;;;;22.80;7.40;;;18.80;75.30;;;;;;4075485;28;20040;-85
2022/08/19 03:26:57;;;;;;;24.58;8.15;;;18.70;75.30;;;;;;4081348;29;20031;-87
2022/08/19 03:29:02;;;;;;;21.95;8.32;;;18.70;75.30;;;;;;4064665;29;20031;-85
2022/08/19 03:31:10;;;;;;;31.33;8.82;;;18.70;75.40;;;;;;4081347;29;20023;-85
2022/08/19 03:33:14;;;;;;;21.70;7.63;;;18.70;75.50;;;;;;4080394;29;20125;-85
2022/08/19 03:35:14;;;;;;;22.00;8.32;;;18.70;75.50;;;;;;4076700;29;20024;-85
2022/08/19 03:37:15;;;;;;;20.58;8.18;;;18.60;75.50;;;;;;4077518;29;20483;-85
2022/08/19 03:39:16;;;;;;;24.77;7.55;;;18.60;75.50;;;;;;4059458;29;20051;-85
2022/08/19 03:41:32;;;;;;;21.75;8.50;;;18.60;75.60;;;;;;4054652;29;20107;-86
2022/08/19 03:43:36;;;;;;;20.77;8.68;;;18.60;75.80;;;;;;4054559;29;20032;-85
2022/08/19 03:45:36;;;;;;;20.65;8.55;;;18.60;75.70;;;;;;4074046;29;20055;-86
2022/08/19 03:47:37;;;;;;;23.60;8.82;;;18.50;75.80;;;;;;4077678;29;20031;-86
2022/08/19 03:49:38;;;;;;;21.23;8.10;;;18.50;75.80;;;;;;4062675;29;20064;-86
2022/08/19 03:51:38;;;;;;;28.95;9.25;;;18.50;75.90;;;;;;4082518;29;20517;-86
2022/08/19 03:53:39;;;;;;;25.02;10.25;;;18.50;76.00;;;;;;4075935;29;20043;-86
2022/08/19 03:55:41;;;;;;;19.38;8.50;;;18.50;76.00;;;;;;4074153;29;20486;-86
2022/08/19 03:57:41;;;;;;;20.45;8.93;;;18.50;76.20;;;;;;4073582;29;20059;-87
2022/08/19 03:59:42;;;;;;;25.52;9.30;;;18.40;76.20;;;;;;4057630;29;20518;-87
2022/08/19 04:01:43;;;;;;;19.50;8.70;;;18.40;76.20;;;;;;4064413;29;20713;-86
2022/08/19 04:03:46;;;;;;;20.17;9.20;;;18.40;76.40;;;;;;4076805;29;20032;-87
2022/08/19 04:05:46;;;;;;;23.67;9.95;;;18.40;76.40;;;;;;4072151;29;20043;-87
2022/08/19 04:07:47;;;;;;;19.42;9.15;;;18.40;76.40;;;;;;4057460;29;20506;-83
2022/08/19 04:09:49;;;;;;;29.88;10.45;;;18.40;76.50;;;;;;4072330;29;20520;-86
2022/08/19 04:11:55;;;;;;;30.23;10.60;;;18.30;76.40;;;;;;4059438;29;20020;-85
2022/08/19 04:14:19;;;;;;;28.33;9.82;;;18.40;76.50;;;;;;4077055;29;20039;-85
2022/08/19 04:16:40;;;;;;;;;;;18.30;76.50;;;;;;4072604;29;20031;-86
2022/08/19 04:19:03;;;;;;;25.33;9.68;;;18.30;76.50;;;;;;4075806;29;19925;-86
2022/08/19 04:21:04;;;;;;;22.27;10.47;;;18.30;76.30;;;;;;4073280;29;20170;-87
2022/08/19 04:23:04;;;;;;;21.98;10.02;;;18.30;76.60;;;;;;4058144;29;20288;-86
2022/08/19 04:25:05;;;;;;;22.85;10.98;;;18.30;76.70;;;;;;4068874;29;20176;-87
2022/08/19 04:27:06;;;;;;;28.52;10.38;;;18.30;76.90;;;;;;4078022;29;20280;-85
2022/08/19 04:29:14;;;;;;;24.40;10.10;;;18.30;77.00;;;;;;4058829;29;20072;-86
2022/08/19 04:31:21;;;;;;;24.80;10.40;;;18.30;77.10;;;;;;4061000;29;20487;-85
2022/08/19 04:33:24;;;;;;;24.00;9.40;;;18.30;77.10;;;;;;4063246;29;20036;-87
2022/08/19 04:35:25;;;;;;;25.20;10.23;;;18.30;77.30;;;;;;4075440;29;20244;-87
2022/08/19 04:37:27;;;;;;;22.50;10.30;;;18.30;77.20;;;;;;4062141;29;20529;-86
2022/08/19 04:44:09;;;;;;;20.42;9.60;;;18.20;77.30;;;;;;4078472;29;20028;-87
2022/08/19 04:46:12;;;;;;;24.25;10.13;;;18.30;77.50;;;;;;4076790;29;20032;-86
2022/08/19 04:48:13;;;;;;;36.95;10.38;;;18.30;77.50;;;;;;4068527;29;20135;-87
2022/08/19 04:50:14;;;;;;;28.52;10.43;;;18.30;77.50;;;;;;4062820;29;20047;-87
2022/08/19 04:52:14;;;;;;;28.63;10.88;;;18.30;77.50;;;;;;4059446;29;20034;-86
2022/08/19 04:54:17;;;;;;;27.50;10.38;;;18.30;77.60;;;;;;4062678;29;20036;-86
2022/08/19 04:56:22;;;;;;;26.95;9.60;;;18.30;77.50;;;;;;4066961;29;20028;-86
2022/08/19 04:58:25;;;;;;;25.10;10.40;;;18.30;77.50;;;;;;4075044;29;20066;-86
2022/08/19 05:00:25;;;;;;;27.77;9.88;;;18.30;77.40;;;;;;4048087;29;20103;-87
2022/08/19 05:02:26;;;;;;;25.58;10.25;;;18.30;77.30;;;;;;4077376;29;20032;-86
2022/08/19 05:04:33;;;;;;;28.48;10.82;;;18.30;77.30;;;;;;4062943;29;20024;-86
2022/08/19 05:06:34;;;;;;;19.67;9.23;;;18.30;78.00;;;;;;4074500;29;20024;-87
2022/08/19 05:08:37;;;;;;;27.50;10.57;;;18.40;77.30;;;;;;4085596;29;20030;-87
2022/08/19 05:10:39;;;;;;;29.08;10.57;;;18.30;77.20;;;;;;4065523;29;20021;-88
2022/08/19 05:12:40;;;;;;;29.45;10.18;;;18.30;77.30;;;;;;4067414;29;20020;-88
2022/08/19 05:14:40;;;;;;;27.30;10.07;;;18.40;77.30;;;;;;4061477;29;20040;-87
2022/08/19 05:16:41;;;;;;;29.50;9.43;;;18.40;77.40;;;;;;4064598;29;20458;-86
2022/08/19 05:24:43;;;;;;;24.15;9.70;;;18.40;77.30;;;;;;4070505;29;20083;-87
2022/08/19 05:29:37;;;;;;;32.45;10.73;;;18.40;77.00;;;;;;4070963;29;20106;-87
2022/08/19 05:35:14;;;;;;;22.45;10.60;;;18.30;77.10;;;;;;4079932;29;20043;-86
2022/08/19 05:37:29;;;;;;;24.80;10.82;;;18.50;77.10;;;;;;4065914;29;20099;-86
2022/08/19 05:39:59;;;;;;;29.00;11.20;;;18.40;77.10;;;;;;4060002;29;20086;-87
2022/08/19 05:42:06;;;;;;;32.03;11.40;;;18.40;77.10;;;;;;4065778;29;20386;-87
2022/08/19 05:44:17;;;;;;;21.77;10.55;;;18.40;77.10;;;;;;4076858;29;20032;-86
2022/08/19 05:46:20;;;;;;;26.95;11.88;;;18.40;77.10;;;;;;4064614;29;20047;-87
2022/08/19 05:49:40;;;;;;;29.75;11.40;;;18.40;77.10;;;;;;4060580;29;20142;-87
2022/08/19 05:51:50;;;;;;;29.58;11.75;;;18.50;77.30;;;;;;4030593;29;20595;-87
2022/08/19 05:54:02;;;;;;;36.63;10.63;;;18.40;77.10;;;;;;4045054;29;20506;-87
2022/08/19 05:56:07;;;;;;;39.17;11.95;;;18.40;77.30;;;;;;4067810;29;20028;-88
2022/08/19 05:58:17;;;;;;;25.48;11.38;;;18.40;77.30;;;;;;4087699;29;20088;-87
2022/08/19 06:00:18;;;;;;;31.90;11.85;;;18.40;77.30;;;;;;4098575;29;20039;-87
2022/08/19 06:02:21;;;;;;;32.42;11.43;;;18.40;77.30;;;;;;4065182;29;20565;-88
2022/08/19 06:04:30;;;;;;;33.30;11.65;;;18.40;77.30;;;;;;4063488;29;20515;-87
2022/08/19 06:06:34;;;;;;;38.92;11.52;;;18.40;77.20;;;;;;4077897;29;20020;-87
2022/08/19 06:08:38;;;;;;;25.10;10.80;;;18.40;77.30;;;;;;4075045;29;20036;-87
2022/08/19 06:10:49;;;;;;;23.70;11.15;;;18.40;77.30;;;;;;4079622;29;20032;-87
2022/08/19 06:27:15;;;;;;;;;;;;;;;;;;;;;
2022/08/19 06:30:41;;;;;;;;;;;;;;;;;;;;;
2022/08/19 06:37:33;;;;;;;59.85;26.33;;;18.40;77.70;;;;;;3982528;29;20031;-88
2022/08/19 06:40:09;;;;;;;36.75;13.77;;;18.50;77.80;;;;;;3953578;29;20024;-86
2022/08/19 06:43:30;;;;;;;28.67;12.60;;;18.40;77.80;;;;;;3941291;30;20040;-87
2022/08/19 06:45:46;;;;;;;38.30;13.20;;;18.50;78.10;;;;;;4133668;23;20056;-85
2022/08/19 06:47:48;;;;;;;32.10;12.93;;;18.40;77.80;;;;;;4138198;28;20034;-85
2022/08/19 06:49:49;;;;;;;44.97;14.50;;;18.50;78.00;;;;;;4125139;28;20816;-85
2022/08/19 06:51:50;;;;;;;30.60;14.07;;;18.40;78.10;;;;;;4125802;28;20033;-85
2022/08/19 06:53:53;;;;;;;44.00;16.20;;;18.50;78.10;;;;;;4137293;28;20033;-85
2022/08/19 06:55:59;;;;;;;;;;;18.50;78.10;;;;;;4109746;28;20043;-87
2022/08/19 06:58:04;;;;;;;38.42;16.65;;;18.50;78.10;;;;;;4139448;28;19913;-84
2022/08/19 07:00:09;;;;;;;39.55;17.55;;;18.50;77.90;;;;;;4130323;28;20100;-85
2022/08/19 07:02:10;;;;;;;37.38;16.48;;;18.50;78.00;;;;;;4119979;28;20030;-85
2022/08/19 07:04:12;;;;;;;37.15;17.15;;;18.40;78.00;;;;;;4137034;28;20043;-85
2022/08/19 07:06:17;;;;;;;37.30;16.63;;;18.50;78.10;;;;;;4142299;28;20017;-86
2022/08/19 07:08:17;;;;;;;41.90;16.88;;;18.50;78.20;;;;;;4140909;28;20036;-85
2022/08/19 07:10:19;;;;;;;42.65;16.55;;;18.50;78.30;;;;;;4130776;28;20022;-85
2022/08/19 07:12:19;;;;;;;43.20;16.58;;;18.50;78.40;;;;;;4128694;28;20027;-85
2022/08/19 07:14:24;;;;;;;37.50;15.77;;;18.50;78.40;;;;;;4112421;28;20146;-85
2022/08/19 07:16:26;;;;;;;33.70;15.55;;;18.50;78.60;;;;;;4127987;28;20018;-86
2022/08/19 07:18:27;;;;;;;37.53;16.15;;;18.50;78.60;;;;;;4131645;28;20023;-85
2022/08/19 07:20:28;;;;;;;33.70;15.70;;;18.50;78.70;;;;;;4133495;28;20033;-84
2022/08/19 07:22:29;;;;;;;41.83;17.50;;;18.50;78.80;;;;;;4118679;28;20020;-85
2022/08/19 07:24:50;;;;;;;35.63;16.55;;;18.50;78.90;;;;;;4127553;28;20129;-85
2022/08/19 07:27:13;;;;;;;34.38;17.30;;;18.50;78.90;;;;;;4127585;28;20052;-85
2022/08/19 07:29:36;;;;;;;47.03;18.05;;;18.50;78.90;;;;;;4128134;28;20034;-86
2022/08/19 07:31:58;;;;;;;45.53;20.25;;;18.50;78.80;;;;;;4136292;28;20030;-85
2022/08/19 07:34:19;;;;;;;40.55;17.73;;;18.50;78.80;;;;;;4131786;28;20068;-83
2022/08/19 07:36:22;;;;;;;36.97;16.45;;;18.50;78.90;;;;;;4134741;28;20030;-85
2022/08/19 07:38:23;;;;;;;44.95;18.13;;;18.50;79.00;;;;;;4134937;28;20144;-85
2022/08/19 07:40:24;;;;;;;42.53;17.70;;;18.50;79.10;;;;;;4100668;28;20104;-85
2022/08/19 07:42:25;;;;;;;43.63;17.27;;;18.50;79.10;;;;;;4128390;28;20030;-85
2022/08/19 07:44:26;;;;;;;39.40;17.50;;;18.50;79.30;;;;;;4134222;28;20060;-85
2022/08/19 07:46:28;;;;;;;41.05;17.83;;;18.50;79.40;;;;;;4130397;28;20044;-86
2022/08/19 07:48:29;;;;;;;43.45;17.60;;;18.50;79.30;;;;;;4133155;28;20631;-84
2022/08/19 07:50:29;;;;;;;45.35;16.27;;;18.50;79.40;;;;;;4114619;28;20100;-85
2022/08/19 07:52:30;;;;;;;39.40;17.00;;;18.50;79.50;;;;;;4133975;28;20022;-84
2022/08/19 07:54:35;;;;;;;35.08;15.80;;;18.50;79.70;;;;;;4131628;28;20026;-84
2022/08/19 07:56:36;;;;;;;45.55;17.67;;;18.50;79.80;;;;;;4129525;28;20042;-87
2022/08/19 07:58:41;;;;;;;36.08;16.30;;;18.50;79.90;;;;;;4128585;28;20110;-85
2022/08/19 08:00:43;;;;;;;36.75;16.77;;;18.50;79.90;;;;;;4132129;28;20034;-86
2022/08/19 08:02:44;;;;;;;43.10;17.50;;;18.50;79.90;;;;;;4133403;28;20096;-84
2022/08/19 08:09:36;;;;;;;36.80;16.55;;;18.60;79.90;;;;;;4139510;28;20390;-85
2022/08/19 08:11:39;;;;;;;39.85;16.60;;;18.60;80.00;;;;;;4132367;28;20569;-85
2022/08/19 08:13:40;;;;;;;36.47;16.13;;;18.60;80.70;;;;;;4117609;28;20616;-85
2022/08/19 08:15:41;;;;;;;38.67;15.88;;;18.60;79.80;;;;;;4115358;28;20031;-86
2022/08/19 08:17:43;;;;;;;45.35;17.52;;;18.60;79.80;;;;;;4130965;28;20554;-88
2022/08/19 08:19:44;;;;;;;38.75;16.35;;;18.60;79.80;;;;;;4126812;28;20069;-85
2022/08/19 08:21:45;;;;;;;38.80;16.35;;;18.60;79.80;;;;;;4113377;28;20082;-85
2022/08/19 08:23:46;;;;;;;40.35;16.92;;;18.60;79.70;;;;;;4112430;28;20031;-85
2022/08/19 08:25:48;;;;;;;37.92;15.70;;;18.60;79.70;;;;;;4130946;28;20018;-85
2022/08/19 08:27:49;;;;;;;42.13;16.40;;;18.60;79.60;;;;;;4134026;28;20030;-87
2022/08/19 08:29:50;;;;;;;43.33;16.30;;;18.60;79.70;;;;;;4134769;28;20773;-84
2022/08/19 08:31:51;;;;;;;40.72;16.60;;;18.50;79.80;;;;;;4140019;28;20032;-86
2022/08/19 08:33:52;;;;;;;35.22;14.23;;;18.50;79.70;;;;;;4133457;28;20038;-85
2022/08/19 08:35:53;;;;;;;31.20;14.40;;;18.50;79.80;;;;;;4134894;28;20434;-85
2022/08/19 08:37:57;;;;;;;31.02;14.07;;;18.60;79.90;;;;;;4123067;28;20141;-86
2022/08/19 08:39:58;;;;;;;31.08;14.73;;;18.50;79.90;;;;;;4112836;28;20015;-86
2022/08/19 08:42:17;;;;;;;32.95;14.52;;;18.60;80.00;;;;;;4128008;28;20088;-84
2022/08/19 08:44:22;;;;;;;33.15;14.65;;;18.60;79.90;;;;;;4111439;28;20027;-86
2022/08/19 08:46:41;;;;;;;29.67;13.93;;;18.50;79.80;;;;;;4099855;28;20039;-85
2022/08/19 08:48:53;;;;;;;32.33;13.50;;;18.60;79.90;;;;;;4129496;28;20053;-85
2022/08/19 08:50:56;;;;;;;29.50;13.00;;;18.60;80.10;;;;;;4136821;28;20022;-87
2022/08/19 08:52:58;;;;;;;34.17;14.63;;;18.60;80.10;;;;;;4134719;28;20041;-86
2022/08/19 08:55:03;;;;;;;35.00;14.52;;;18.60;80.10;;;;;;4118796;28;20022;-87
2022/08/19 08:57:10;;;;;;;28.65;13.35;;;18.60;80.20;;;;;;4114045;28;20030;-84
2022/08/19 08:59:36;;;;;;;40.08;15.60;;;18.60;80.30;;;;;;4132443;28;20026;-86
2022/08/19 09:01:38;;;;;;;34.15;15.57;;;18.60;80.40;;;;;;4095770;29;20046;-87
2022/08/19 09:03:42;;;;;;;36.67;15.63;;;18.60;80.10;;;;;;4104239;28;20024;-85
2022/08/19 09:05:56;;;;;;;33.20;15.48;;;18.60;80.10;;;;;;4113805;28;20031;-85
2022/08/19 09:07:56;;;;;;;39.30;14.73;;;18.70;80.20;;;;;;4131997;28;20750;-85
2022/08/19 09:10:17;;;;;;;32.20;15.15;;;18.70;80.20;;;;;;4134528;28;20054;-86
2022/08/19 09:12:30;;;;;;;32.75;14.63;;;18.70;80.30;;;;;;4128476;28;20022;-87
2022/08/19 09:14:55;;;;;;;33.13;15.68;;;18.70;80.20;;;;;;4116289;28;20033;-86
2022/08/19 09:16:57;;;;;;;30.98;14.90;;;18.70;80.40;;;;;;4130198;28;20060;-86
2022/08/19 09:19:03;;;;;;;38.15;15.13;;;18.80;80.30;;;;;;4117058;28;20069;-86
2022/08/19 09:21:04;;;;;;;38.90;15.57;;;18.70;80.30;;;;;;4130136;28;20023;-85
2022/08/19 09:23:05;;;;;;;32.53;14.73;;;18.80;80.40;;;;;;4125737;28;20608;-87
2022/08/19 09:25:08;;;;;;;36.85;15.38;;;18.80;80.50;;;;;;4127612;28;20050;-86
2022/08/19 09:27:09;;;;;;;33.17;14.55;;;18.80;80.40;;;;;;4132179;28;20031;-85
2022/08/19 09:29:10;;;;;;;33.25;14.73;;;18.90;80.50;;;;;;4136621;28;20026;-87
2022/08/19 09:31:16;;;;;;;37.08;15.32;;;18.90;80.50;;;;;;4136778;28;20034;-86
2022/08/19 09:33:17;;;;;;;46.95;16.10;;;18.90;80.50;;;;;;4119047;28;20027;-85
2022/08/19 09:35:19;;;;;;;42.95;15.70;;;19.00;80.60;;;;;;4141773;28;20060;-85
2022/08/19 09:37:21;;;;;;;33.78;14.88;;;19.00;80.30;;;;;;4135153;28;20022;-86
2022/08/19 09:39:22;;;;;;;30.60;14.90;;;19.00;80.30;;;;;;4128354;28;20030;-85
2022/08/19 09:41:24;;;;;;;30.50;14.30;;;19.10;80.30;;;;;;4098990;28;20347;-85
2022/08/19 09:43:27;;;;;;;31.33;14.02;;;19.00;80.20;;;;;;4129645;28;20127;-85
2022/08/19 09:45:29;;;;;;;38.17;15.77;;;19.10;80.30;;;;;;4136918;28;20059;-86
2022/08/19 09:47:29;;;;;;;33.88;14.88;;;19.10;80.10;;;;;;4119597;28;20406;-85
2022/08/19 09:49:31;;;;;;;29.40;14.27;;;19.10;79.90;;;;;;4138068;28;20026;-86
2022/08/19 09:51:32;;;;;;;36.30;15.98;;;19.20;79.70;;;;;;4126636;28;20051;-85
2022/08/19 09:53:33;;;;;;;39.33;16.42;;;19.30;79.70;;;;;;4132097;28;20367;-85
2022/08/19 09:55:34;;;;;;;41.50;16.60;;;19.20;79.30;;;;;;4116584;28;20022;-85
2022/08/19 09:57:35;;;;;;;38.88;15.35;;;19.20;79.20;;;;;;4116757;28;20073;-84
2022/08/19 09:59:36;;;;;;;35.00;15.02;;;19.30;79.10;;;;;;4133039;28;20057;-85
2022/08/19 10:01:37;;;;;;;36.05;16.45;;;19.30;78.90;;;;;;4116449;28;20034;-85
2022/08/19 10:03:38;;;;;;;30.30;15.38;;;19.30;78.80;;;;;;4114057;28;20034;-85
2022/08/19 10:05:48;;;;;;;30.88;14.07;;;19.30;78.70;;;;;;4125930;28;20081;-85
2022/08/19 10:07:48;;;;;;;33.15;14.57;;;19.30;78.60;;;;;;4113883;28;20589;-85
2022/08/19 10:09:49;;;;;;;25.50;13.48;;;19.30;78.70;;;;;;4125889;28;20031;-85
2022/08/19 10:11:50;;;;;;;35.35;15.02;;;19.30;78.70;;;;;;4112293;28;20054;-86
2022/08/19 10:13:50;;;;;;;35.10;14.82;;;19.40;78.60;;;;;;4109281;28;20095;-86
2022/08/19 10:16:02;;;;;;;31.13;14.32;;;19.40;78.40;;;;;;4125702;28;20034;-85
2022/08/19 10:18:03;;;;;;;31.35;13.90;;;19.40;78.30;;;;;;4120963;28;20034;-86
2022/08/19 10:20:04;;;;;;;32.88;14.65;;;19.40;78.30;;;;;;4125949;28;20166;-88
2022/08/19 10:22:06;;;;;;;25.38;12.85;;;19.40;78.30;;;;;;4108350;28;20019;-87
2022/08/19 10:24:07;;;;;;;27.67;13.20;;;19.50;78.30;;;;;;4122026;28;20022;-85
2022/08/19 10:26:08;;;;;;;27.00;12.90;;;19.50;78.20;;;;;;4110398;28;20033;-85
2022/08/19 10:28:11;;;;;;;28.08;12.38;;;19.50;78.20;;;;;;4118019;28;20040;-86
2022/08/19 10:30:13;;;;;;;30.33;12.65;;;19.60;78.20;;;;;;4110367;28;20027;-87
2022/08/19 10:32:13;;;;;;;25.48;12.70;;;19.60;78.10;;;;;;4125780;28;20050;-85
2022/08/19 10:34:14;;;;;;;22.55;11.30;;;19.70;78.00;;;;;;4124775;28;20034;-86
2022/08/19 10:36:22;;;;;;;19.83;10.88;;;19.70;77.90;;;;;;4104551;28;20055;-86
2022/08/19 10:38:23;;;;;;;24.88;11.63;;;19.80;77.70;;;;;;4123216;28;20490;-87
2022/08/19 10:40:27;;;;;;;22.55;11.90;;;19.80;77.60;;;;;;4112933;28;20062;-85
2022/08/19 10:42:28;;;;;;;24.33;11.68;;;19.80;77.50;;;;;;4096098;28;20030;-86
2022/08/19 10:44:29;;;;;;;23.17;12.25;;;19.90;77.30;;;;;;4111953;28;20089;-86
2022/08/19 10:46:32;;;;;;;24.23;12.10;;;19.90;76.90;;;;;;4106883;28;20114;-85
2022/08/19 10:48:33;;;;;;;23.13;12.93;;;20.00;76.80;;;;;;4124713;28;20030;-85
2022/08/19 10:52:55;;;;;;;23.55;11.65;;;20.10;76.10;;;;;;4124787;28;20491;-85
2022/08/19 10:57:15;;;;;;;24.40;12.20;;;20.10;75.60;;;;;;4123840;28;20164;-86
2022/08/19 10:59:21;;;;;;;21.90;11.82;;;20.20;75.70;;;;;;4109867;28;20081;-87
2022/08/19 11:01:21;;;;;;;22.98;12.43;;;20.20;75.50;;;;;;4125569;28;20077;-86
2022/08/19 11:03:23;;;;;;;21.95;12.60;;;20.30;75.40;;;;;;4126420;28;20109;-87
2022/08/19 11:05:24;;;;;;;22.63;12.77;;;20.30;75.10;;;;;;4124783;28;20027;-85
2022/08/19 11:07:26;;;;;;;27.17;12.57;;;20.40;74.70;;;;;;4096272;28;20030;-85
2022/08/19 11:09:27;;;;;;;21.02;12.15;;;20.40;74.60;;;;;;4127569;28;20030;-86
2022/08/19 11:11:28;;;;;;;20.40;11.73;;;20.50;74.50;;;;;;4122374;28;20513;-85
2022/08/19 11:13:35;;;;;;;32.05;12.80;;;20.50;74.20;;;;;;4124236;28;20105;-85
2022/08/19 11:15:37;;;;;;;22.77;12.00;;;20.50;74.10;;;;;;4126360;28;20095;-86
2022/08/19 11:17:43;;;;;;;21.98;11.95;;;20.60;73.80;;;;;;4091952;28;20058;-86
2022/08/19 11:19:43;;;;;;;21.13;11.70;;;20.60;73.60;;;;;;4107382;28;20035;-86
2022/08/19 11:21:47;;;;;;;21.52;11.65;;;20.70;73.50;;;;;;4111159;28;20089;-85
2022/08/19 11:23:52;;;;;;;20.08;11.20;;;20.70;73.20;;;;;;4111292;28;20495;-85
2022/08/19 11:25:53;;;;;;;26.85;11.68;;;20.80;73.00;;;;;;4120538;28;20129;-84